Time;durP1;ratioP1;P1;durP2;ratioP2;P2;SDS_P1;SDS_P2;PMS_P1;PMS_P2;Temp;Humidity;BMP_temperature;BMP_pressure;BME280_temperature;BME280_humidity;BME280_pressure;Samples;Min_cycle;Max_cycle;Signal;HPM_P1;HPM_P2
2021/06/19 00:01:29;;;;;;;16.58;11.13;;;19.30;99.90;;;;;;6216248;23;20433;-79
2021/06/19 00:03:55;;;;;;;14.32;11.27;;;19.20;99.90;;;;;;6216104;23;20378;-79
2021/06/19 00:06:21;;;;;;;16.10;10.88;;;19.20;99.90;;;;;;6216391;23;19996;-79
2021/06/19 00:08:47;;;;;;;17.92;11.02;;;19.30;99.90;;;;;;6215994;23;20004;-78
2021/06/19 00:11:13;;;;;;;15.45;11.18;;;19.30;99.90;;;;;;6215846;23;20457;-78
2021/06/19 00:13:39;;;;;;;18.88;10.77;;;19.00;99.90;;;;;;6216270;23;19997;-78
2021/06/19 00:16:05;;;;;;;12.35;11.02;;;19.00;99.90;;;;;;6216146;23;20266;-78
2021/06/19 00:18:32;;;;;;;16.00;11.45;;;19.10;99.90;;;;;;6216080;23;19993;-79
2021/06/19 00:20:57;;;;;;;15.90;11.48;;;18.80;99.90;;;;;;6216122;23;20561;-79
2021/06/19 00:23:23;;;;;;;16.30;11.32;;;18.90;99.90;;;;;;6216003;23;20001;-79
2021/06/19 00:25:49;;;;;;;14.07;10.32;;;18.70;99.90;;;;;;6215737;23;20004;-79
2021/06/19 00:28:15;;;;;;;15.02;9.02;;;18.70;99.90;;;;;;6216118;23;20342;-78
2021/06/19 00:30:41;;;;;;;18.63;10.00;;;18.80;99.90;;;;;;6216018;23;20004;-78
2021/06/19 00:33:06;;;;;;;16.33;10.05;;;18.80;99.90;;;;;;6215955;23;20362;-78
2021/06/19 00:35:32;;;;;;;15.23;8.93;;;18.90;99.90;;;;;;6215933;23;20024;-78
2021/06/19 00:37:58;;;;;;;14.95;9.55;;;18.70;99.90;;;;;;6215628;23;20020;-78
2021/06/19 00:40:24;;;;;;;16.42;9.32;;;18.50;99.90;;;;;;6215585;23;19993;-79
2021/06/19 00:42:56;;;;;;;11.05;9.38;;;18.40;99.90;;;;;;6215843;23;20066;-78
2021/06/19 00:45:24;;;;;;;15.55;9.95;;;18.40;99.90;;;;;;6215834;23;20001;-78
2021/06/19 00:47:49;;;;;;;15.55;9.65;;;18.60;99.90;;;;;;6215826;23;20001;-78
2021/06/19 00:50:16;;;;;;;12.05;10.85;;;18.70;99.90;;;;;;6215728;23;20334;-78
2021/06/19 00:52:43;;;;;;;12.55;9.73;;;18.70;99.90;;;;;;6215602;23;20003;-78
2021/06/19 00:55:09;;;;;;;13.40;8.95;;;18.50;99.90;;;;;;6215360;23;20020;-79
2021/06/19 00:57:36;;;;;;;15.32;9.88;;;18.30;99.90;;;;;;6189252;23;20001;-78
2021/06/19 01:00:04;;;;;;;15.13;9.55;;;18.30;99.90;;;;;;6215574;23;20312;-78
2021/06/19 01:02:30;;;;;;;15.07;9.23;;;18.30;99.90;;;;;;6215218;23;20063;-79
2021/06/19 01:04:56;;;;;;;17.90;9.73;;;18.20;99.90;;;;;;6215584;23;20004;-78
2021/06/19 01:07:23;;;;;;;16.35;10.77;;;18.20;99.90;;;;;;6215715;23;19997;-78
2021/06/19 01:09:49;;;;;;;17.27;10.38;;;18.40;99.90;;;;;;6188409;23;20005;-78
2021/06/19 01:12:23;;;;;;;17.33;10.50;;;18.40;99.90;;;;;;6215589;23;20123;-78
2021/06/19 01:14:50;;;;;;;18.05;9.90;;;18.40;99.90;;;;;;6215516;23;20003;-78
2021/06/19 01:17:16;;;;;;;16.83;9.30;;;18.40;99.90;;;;;;6215513;23;20458;-78
2021/06/19 01:19:42;;;;;;;12.55;9.95;;;18.20;99.90;;;;;;6215780;23;19997;-78
2021/06/19 01:22:08;;;;;;;15.70;9.70;;;18.20;99.90;;;;;;6216127;23;20001;-78
2021/06/19 01:24:34;;;;;;;15.43;9.05;;;18.10;99.90;;;;;;6215140;23;20369;-79
2021/06/19 01:26:59;;;;;;;17.27;8.63;;;18.10;99.90;;;;;;6215415;23;20346;-79
2021/06/19 01:29:25;;;;;;;15.70;9.57;;;17.70;99.90;;;;;;6215489;23;20000;-79
2021/06/19 01:31:51;;;;;;;14.73;8.70;;;17.70;99.90;;;;;;6215491;23;20016;-79
2021/06/19 01:34:17;;;;;;;17.63;9.63;;;17.70;99.90;;;;;;6215403;23;20059;-78
2021/06/19 01:36:43;;;;;;;15.55;10.30;;;17.80;99.90;;;;;;6188457;23;20505;-78
2021/06/19 01:39:09;;;;;;;15.57;10.25;;;17.90;99.90;;;;;;6215057;23;19993;-78
2021/06/19 01:41:35;;;;;;;17.25;8.68;;;17.90;99.90;;;;;;6215487;23;20335;-78
2021/06/19 01:44:06;;;;;;;17.08;10.05;;;17.90;99.90;;;;;;6215108;23;19996;-78
2021/06/19 01:46:34;;;;;;;12.82;10.23;;;17.90;99.90;;;;;;6188574;23;20461;-78
2021/06/19 01:49:01;;;;;;;18.83;10.15;;;17.80;99.90;;;;;;6215264;23;20004;-78
2021/06/19 01:51:27;;;;;;;15.43;10.98;;;17.50;99.90;;;;;;6215377;23;19996;-79
2021/06/19 01:53:53;;;;;;;12.95;10.38;;;17.50;99.90;;;;;;6214527;23;20062;-79
2021/06/19 01:56:20;;;;;;;11.95;9.63;;;17.50;99.90;;;;;;6215413;23;19993;-78
2021/06/19 01:58:45;;;;;;;15.88;10.15;;;17.60;99.90;;;;;;6215327;23;19993;-79
2021/06/19 02:01:14;;;;;;;16.33;9.60;;;17.50;99.90;;;;;;6215038;23;20003;-79
2021/06/19 02:03:40;;;;;;;16.30;10.27;;;17.40;99.90;;;;;;6215372;23;20004;-79
2021/06/19 02:06:06;;;;;;;21.15;10.07;;;17.40;99.90;;;;;;6215003;23;20004;-79
2021/06/19 02:08:33;;;;;;;14.88;8.65;;;17.60;99.90;;;;;;6214676;23;20443;-78
2021/06/19 02:11:00;;;;;;;11.90;7.85;;;17.30;99.90;;;;;;6215028;23;19997;-78
2021/06/19 02:13:27;;;;;;;11.50;8.63;;;17.20;99.90;;;;;;6214875;23;20032;-78
2021/06/19 02:15:54;;;;;;;17.83;9.02;;;17.20;99.90;;;;;;6215187;23;20050;-78
2021/06/19 02:18:20;;;;;;;20.48;9.63;;;17.30;99.90;;;;;;6214974;23;20331;-78
2021/06/19 02:20:51;;;;;;;12.27;8.48;;;17.00;99.90;;;;;;6215001;23;20062;-78
2021/06/19 02:23:17;;;;;;;13.15;9.57;;;17.10;99.90;;;;;;6214581;23;20076;-78
2021/06/19 02:25:44;;;;;;;16.58;10.45;;;17.00;99.90;;;;;;6215017;23;20004;-78
2021/06/19 02:28:10;;;;;;;19.50;9.10;;;16.80;99.90;;;;;;6214828;23;20001;-79
2021/06/19 02:30:39;;;;;;;14.18;9.20;;;16.90;99.90;;;;;;6214817;23;20026;-78
2021/06/19 02:33:06;;;;;;;16.55;9.25;;;17.00;99.90;;;;;;6214931;23;20000;-78
2021/06/19 02:35:36;;;;;;;11.43;9.75;;;17.00;99.90;;;;;;6215328;23;20007;-78
2021/06/19 02:38:03;;;;;;;13.65;9.40;;;17.30;99.90;;;;;;6214156;23;20450;-79
2021/06/19 02:40:29;;;;;;;19.52;10.55;;;17.40;99.90;;;;;;6214870;23;20068;-79
2021/06/19 02:42:56;;;;;;;16.08;11.10;;;17.40;99.90;;;;;;6214897;23;20000;-79
2021/06/19 02:45:22;;;;;;;12.10;10.57;;;17.40;99.90;;;;;;6214724;23;19996;-78
2021/06/19 02:47:54;;;;;;;12.88;11.00;;;17.50;99.90;;;;;;6214862;23;20005;-79
2021/06/19 02:50:23;;;;;;;17.00;11.82;;;17.50;99.90;;;;;;6214549;23;19997;-79
2021/06/19 02:52:49;;;;;;;18.40;11.00;;;17.40;99.90;;;;;;6214254;23;20004;-79
2021/06/19 02:55:18;;;;;;;12.65;10.35;;;17.30;99.90;;;;;;6214556;23;20335;-79
2021/06/19 02:57:44;;;;;;;17.27;11.70;;;17.20;99.90;;;;;;6214781;23;20067;-79
2021/06/19 03:00:14;;;;;;;14.10;11.18;;;17.10;99.90;;;;;;6214543;23;20270;-78
2021/06/19 03:02:40;;;;;;;15.30;12.30;;;17.00;99.90;;;;;;6214639;23;20000;-78
2021/06/19 03:05:08;;;;;;;16.70;12.27;;;17.00;99.90;;;;;;6214134;23;20028;-79
2021/06/19 03:07:33;;;;;;;14.80;12.07;;;17.10;99.90;;;;;;6214784;23;20000;-78
2021/06/19 03:09:59;;;;;;;12.00;10.70;;;17.30;99.90;;;;;;6214621;23;20484;-79
2021/06/19 03:12:27;;;;;;;16.67;11.88;;;17.50;99.90;;;;;;6214558;23;20005;-78
2021/06/19 03:14:53;;;;;;;12.38;10.05;;;17.60;99.90;;;;;;6214667;23;19997;-78
2021/06/19 03:17:19;;;;;;;17.83;11.35;;;17.80;99.90;;;;;;6214202;23;19992;-78
2021/06/19 03:19:45;;;;;;;15.05;11.13;;;17.80;99.90;;;;;;6187708;23;20004;-78
2021/06/19 03:22:10;;;;;;;11.50;9.52;;;17.90;99.90;;;;;;6214451;23;19993;-78
2021/06/19 03:24:38;;;;;;;13.95;9.98;;;18.00;99.90;;;;;;6214768;23;20015;-78
2021/06/19 03:27:05;;;;;;;12.48;9.88;;;18.00;99.90;;;;;;6216066;23;20381;-78
2021/06/19 03:29:30;;;;;;;12.50;10.30;;;18.10;99.90;;;;;;6216501;23;20020;-78
2021/06/19 03:31:56;;;;;;;14.15;9.55;;;18.10;99.90;;;;;;6216393;23;19993;-78
2021/06/19 03:34:22;;;;;;;12.70;9.85;;;18.10;99.90;;;;;;6216131;23;20007;-78
2021/06/19 03:36:48;;;;;;;10.40;9.32;;;18.20;99.90;;;;;;6216272;23;20454;-78
2021/06/19 03:39:15;;;;;;;13.75;9.98;;;18.30;99.90;;;;;;6216214;23;20043;-79
2021/06/19 03:41:45;;;;;;;13.68;9.43;;;18.20;99.90;;;;;;6216573;23;20076;-79
2021/06/19 03:44:11;;;;;;;13.93;10.53;;;18.20;99.90;;;;;;6216327;23;20046;-79
2021/06/19 03:46:41;;;;;;;20.85;10.00;;;18.30;99.90;;;;;;6216429;23;20232;-79
2021/06/19 03:49:06;;;;;;;15.90;10.65;;;18.40;99.90;;;;;;6216080;23;20019;-79
2021/06/19 03:51:33;;;;;;;17.67;12.00;;;18.50;99.90;;;;;;6216429;23;20339;-79
2021/06/19 03:53:58;;;;;;;13.73;10.50;;;18.50;99.90;;;;;;6216543;23;19997;-79
2021/06/19 03:56:24;;;;;;;11.35;10.13;;;18.50;99.90;;;;;;6189737;23;20000;-79
2021/06/19 03:58:50;;;;;;;14.35;11.50;;;18.60;99.90;;;;;;6216401;23;19997;-78
2021/06/19 04:01:16;;;;;;;17.02;11.57;;;18.60;99.90;;;;;;6216064;23;19993;-78
2021/06/19 04:03:42;;;;;;;15.18;12.50;;;18.70;99.90;;;;;;6216068;23;19997;-79
2021/06/19 04:06:08;;;;;;;18.17;12.60;;;18.70;99.90;;;;;;6216209;23;20007;-79
2021/06/19 04:08:33;;;;;;;20.42;12.38;;;18.80;99.90;;;;;;6216212;23;20001;-78
2021/06/19 04:10:59;;;;;;;15.45;11.63;;;18.80;99.90;;;;;;6216267;23;20528;-78
2021/06/19 04:13:25;;;;;;;14.40;12.27;;;18.80;99.90;;;;;;6215847;23;20465;-79
2021/06/19 04:15:50;;;;;;;14.93;11.38;;;18.90;99.90;;;;;;6216321;23;19996;-79
2021/06/19 04:18:16;;;;;;;16.63;13.23;;;18.90;99.90;;;;;;6215821;23;20020;-79
2021/06/19 04:20:42;;;;;;;16.95;13.50;;;18.90;99.90;;;;;;6216228;23;19993;-78
2021/06/19 04:23:08;;;;;;;17.73;13.27;;;19.00;99.90;;;;;;6216208;23;19997;-79
2021/06/19 04:25:33;;;;;;;16.90;15.27;;;19.00;99.90;;;;;;6216141;23;20047;-78
2021/06/19 04:27:59;;;;;;;18.30;16.40;;;19.00;99.90;;;;;;6216040;23;20011;-79
2021/06/19 04:30:26;;;;;;;23.60;17.13;;;19.00;99.90;;;;;;6216085;23;20000;-79
2021/06/19 04:32:54;;;;;;;20.77;18.35;;;19.10;99.90;;;;;;6215646;23;20007;-78
2021/06/19 04:35:21;;;;;;;26.05;19.35;;;19.10;99.90;;;;;;6215873;23;20001;-78
2021/06/19 04:37:48;;;;;;;22.35;19.98;;;19.10;99.90;;;;;;6215965;23;20012;-78
2021/06/19 04:42:58;;;;;;;24.25;20.02;;;19.20;99.90;;;;;;6215932;23;20005;-79
2021/06/19 04:45:25;;;;;;;24.23;21.63;;;19.20;99.90;;;;;;6215846;23;20018;-78
2021/06/19 04:47:51;;;;;;;22.88;20.05;;;19.30;99.90;;;;;;6215553;23;19996;-78
2021/06/19 04:50:17;;;;;;;23.38;18.77;;;19.30;99.90;;;;;;6215843;23;19997;-79
2021/06/19 04:52:45;;;;;;;20.48;18.45;;;19.30;99.90;;;;;;6215780;23;20055;-79
2021/06/19 04:55:17;;;;;;;24.92;19.50;;;19.30;99.90;;;;;;6215772;23;19997;-79
2021/06/19 04:57:47;;;;;;;24.70;18.63;;;19.40;99.90;;;;;;6189179;23;20025;-79
2021/06/19 05:00:14;;;;;;;22.48;19.48;;;19.50;99.90;;;;;;6215747;23;19993;-78
2021/06/19 05:02:40;;;;;;;22.55;18.20;;;19.50;99.90;;;;;;6215255;23;20000;-79
2021/06/19 05:05:06;;;;;;;21.02;18.30;;;19.50;99.90;;;;;;6215811;23;20461;-79
2021/06/19 05:07:35;;;;;;;21.20;18.90;;;19.50;99.90;;;;;;6215544;23;20001;-78
2021/06/19 05:10:07;;;;;;;21.52;19.35;;;19.60;99.90;;;;;;6215715;23;20080;-78
2021/06/19 05:12:35;;;;;;;21.08;18.98;;;19.60;99.90;;;;;;6215230;23;20001;-78
2021/06/19 05:15:03;;;;;;;23.35;19.77;;;19.70;99.90;;;;;;6215723;23;20378;-78
2021/06/19 05:17:29;;;;;;;20.15;17.73;;;19.80;99.90;;;;;;6215032;23;20000;-78
2021/06/19 05:19:55;;;;;;;19.00;16.95;;;19.90;99.90;;;;;;6215752;23;19997;-78
2021/06/19 05:22:21;;;;;;;20.92;18.52;;;19.90;99.90;;;;;;6215436;23;20068;-78
2021/06/19 05:24:47;;;;;;;21.58;17.45;;;19.90;99.90;;;;;;6215413;23;20059;-78
2021/06/19 05:27:13;;;;;;;20.92;16.92;;;19.90;99.90;;;;;;6215557;23;20000;-79
2021/06/19 05:29:39;;;;;;;20.60;17.77;;;19.90;99.90;;;;;;6215418;23;20006;-79
2021/06/19 05:32:06;;;;;;;20.55;17.42;;;19.80;99.90;;;;;;6215028;23;20004;-78
2021/06/19 05:34:32;;;;;;;21.70;16.92;;;19.80;99.90;;;;;;6215235;23;20450;-78
2021/06/19 05:36:58;;;;;;;17.88;16.17;;;19.70;99.90;;;;;;6215196;23;20012;-78
2021/06/19 05:39:24;;;;;;;20.80;16.80;;;19.70;99.90;;;;;;6215412;23;20066;-79
2021/06/19 05:41:50;;;;;;;20.40;17.17;;;19.80;99.90;;;;;;6215345;23;20067;-79
2021/06/19 05:44:15;;;;;;;26.45;16.20;;;19.80;99.90;;;;;;6215530;23;20007;-79
2021/06/19 05:46:41;;;;;;;24.83;17.05;;;19.80;99.90;;;;;;6214682;23;20001;-79
2021/06/19 05:49:07;;;;;;;22.77;17.33;;;19.70;99.90;;;;;;6215243;23;19997;-78
2021/06/19 05:51:33;;;;;;;19.05;16.20;;;19.70;99.90;;;;;;6215141;23;20001;-78
2021/06/19 05:53:59;;;;;;;16.23;14.60;;;19.90;99.90;;;;;;6215147;23;20001;-78
2021/06/19 05:56:25;;;;;;;19.35;15.30;;;20.00;99.90;;;;;;6215204;23;20068;-78
2021/06/19 05:58:51;;;;;;;35.45;16.23;;;20.10;99.90;;;;;;6214621;23;20520;-78
2021/06/19 06:01:16;;;;;;;19.40;15.27;;;20.30;99.90;;;;;;6215259;23;19993;-78
2021/06/19 06:03:42;;;;;;;18.23;14.73;;;20.60;99.90;;;;;;6215597;23;20028;-79
2021/06/19 06:06:08;;;;;;;15.43;12.45;;;20.80;99.90;;;;;;6188940;23;20008;-78
2021/06/19 06:08:34;;;;;;;21.98;12.93;;;21.00;99.90;;;;;;6215541;23;20374;-79
2021/06/19 06:11:00;;;;;;;14.02;12.52;;;21.30;99.90;;;;;;6215167;23;20516;-79
2021/06/19 06:13:25;;;;;;;14.73;12.35;;;21.20;99.90;;;;;;6214589;23;20000;-78
2021/06/19 06:15:51;;;;;;;15.80;11.48;;;20.90;99.90;;;;;;6215154;23;20060;-78
2021/06/19 06:18:17;;;;;;;14.57;11.68;;;20.70;99.90;;;;;;6215509;23;20071;-79
2021/06/19 06:20:43;;;;;;;16.65;13.32;;;20.70;99.90;;;;;;6215198;23;20064;-79
2021/06/19 06:23:09;;;;;;;15.60;12.82;;;20.70;99.90;;;;;;6215603;23;19997;-79
2021/06/19 06:25:34;;;;;;;13.77;12.25;;;20.70;99.90;;;;;;6215250;23;19997;-79
2021/06/19 06:28:00;;;;;;;18.20;14.07;;;20.70;99.90;;;;;;6188650;23;20004;-78
2021/06/19 06:30:26;;;;;;;13.15;11.90;;;20.80;99.90;;;;;;6214802;23;20004;-78
2021/06/19 06:32:52;;;;;;;13.05;11.75;;;20.80;99.90;;;;;;6214622;23;20385;-78
2021/06/19 06:35:23;;;;;;;15.32;11.02;;;20.90;99.90;;;;;;6215483;23;19996;-78
2021/06/19 06:37:55;;;;;;;17.70;11.75;;;20.90;99.90;;;;;;6214700;23;20468;-78
2021/06/19 06:40:21;;;;;;;11.85;10.23;;;21.10;99.90;;;;;;6189285;23;19997;-78
2021/06/19 06:42:46;;;;;;;20.02;10.63;;;21.30;99.90;;;;;;6214711;23;19997;-78
2021/06/19 06:45:13;;;;;;;14.38;10.10;;;21.50;99.90;;;;;;6213591;23;20002;-78
2021/06/19 06:47:41;;;;;;;13.63;8.82;;;21.70;99.90;;;;;;6213508;23;20004;-79
2021/06/19 06:50:09;;;;;;;17.67;9.98;;;21.70;99.90;;;;;;6185630;23;20005;-78
2021/06/19 06:52:35;;;;;;;15.82;11.73;;;21.50;99.90;;;;;;6213971;23;20501;-78
2021/06/19 06:55:07;;;;;;;15.55;13.00;;;21.40;99.90;;;;;;6214231;23;20047;-79
2021/06/19 06:57:33;;;;;;;12.43;10.55;;;21.50;99.90;;;;;;6214009;23;20338;-79
2021/06/19 06:59:58;;;;;;;12.77;11.52;;;21.60;99.90;;;;;;6213987;23;20327;-79
2021/06/19 07:02:25;;;;;;;12.55;11.27;;;21.50;99.90;;;;;;6215082;23;20067;-78
2021/06/19 07:04:51;;;;;;;13.18;11.07;;;21.50;99.90;;;;;;6213999;23;20071;-79
2021/06/19 07:07:17;;;;;;;12.88;10.80;;;21.60;99.90;;;;;;6214437;23;20023;-79
2021/06/19 07:09:43;;;;;;;14.27;10.68;;;21.70;99.90;;;;;;6213474;23;20460;-79
2021/06/19 07:12:10;;;;;;;12.63;10.60;;;21.70;99.90;;;;;;6214179;23;20004;-78
2021/06/19 07:14:36;;;;;;;11.95;10.65;;;21.90;99.90;;;;;;6214623;23;20004;-78
2021/06/19 07:17:07;;;;;;;15.63;11.40;;;22.20;99.90;;;;;;6214575;23;20063;-78
2021/06/19 07:19:32;;;;;;;14.75;10.57;;;22.20;99.90;;;;;;6187656;23;20004;-78
2021/06/19 07:21:58;;;;;;;11.35;10.15;;;22.30;99.90;;;;;;6214255;23;19997;-78
2021/06/19 07:24:24;;;;;;;15.05;10.00;;;22.40;99.90;;;;;;6214351;23;20447;-78
2021/06/19 07:26:50;;;;;;;13.52;9.90;;;22.30;99.90;;;;;;6213996;23;20005;-78
2021/06/19 07:29:16;;;;;;;13.05;8.88;;;22.50;99.90;;;;;;6214534;23;20062;-78
2021/06/19 07:31:42;;;;;;;12.80;8.48;;;22.70;99.90;;;;;;6187712;23;20454;-78
2021/06/19 07:34:08;;;;;;;13.95;8.80;;;22.70;99.90;;;;;;6214285;23;20443;-78
2021/06/19 07:36:33;;;;;;;11.10;8.07;;;22.60;99.90;;;;;;6214208;23;20016;-78
2021/06/19 07:38:59;;;;;;;11.20;7.53;;;22.70;99.90;;;;;;6214442;23;19997;-78
2021/06/19 07:41:25;;;;;;;19.02;6.93;;;23.00;99.90;;;;;;6214091;23;20051;-78
2021/06/19 07:43:51;;;;;;;12.90;7.03;;;23.10;99.90;;;;;;6214303;23;19997;-78
2021/06/19 07:46:17;;;;;;;14.73;6.70;;;23.00;99.90;;;;;;6214451;23;20007;-78
2021/06/19 07:48:43;;;;;;;10.23;6.72;;;22.90;99.90;;;;;;6214362;23;20007;-78
2021/06/19 07:51:08;;;;;;;10.30;6.47;;;23.40;99.90;;;;;;6214473;23;20032;-78
2021/06/19 07:53:34;;;;;;;9.75;5.78;;;24.00;99.90;;;;;;6214370;23;20003;-78
2021/06/19 07:56:00;;;;;;;8.23;4.38;;;24.30;99.90;;;;;;6213608;23;19996;-78
2021/06/19 07:58:26;;;;;;;11.52;5.22;;;24.70;99.90;;;;;;6214294;23;19993;-78
2021/06/19 08:00:52;;;;;;;4.13;1.00;;;25.10;99.90;;;;;;6214276;23;19993;-78
2021/06/19 08:03:17;;;;;;;4.50;1.10;;;26.20;99.90;;;;;;6214257;23;20004;-78
2021/06/19 08:05:43;;;;;;;6.00;1.50;;;26.40;99.90;;;;;;6214381;23;20451;-78
2021/06/19 08:08:09;;;;;;;5.22;1.98;;;26.70;99.90;;;;;;6214089;23;20473;-78
2021/06/19 08:10:34;;;;;;;3.25;1.08;;;26.60;99.90;;;;;;6214082;23;20031;-78
2021/06/19 08:13:00;;;;;;;7.47;1.55;;;26.50;99.90;;;;;;6215374;23;20003;-78
2021/06/19 08:15:27;;;;;;;8.32;1.60;;;26.50;99.90;;;;;;6216306;23;20055;-78
2021/06/19 08:17:52;;;;;;;5.78;1.27;;;26.50;99.90;;;;;;6214939;23;20055;-75
2021/06/19 08:20:18;;;;;;;5.93;1.70;;;26.40;99.90;;;;;;6216465;23;19996;-80
2021/06/19 08:22:44;;;;;;;6.00;2.00;;;26.50;99.90;;;;;;6215986;23;20371;-79
2021/06/19 08:25:11;;;;;;;10.15;4.05;;;26.50;99.90;;;;;;6215734;23;20054;-80
2021/06/19 08:27:37;;;;;;;6.15;5.03;;;26.00;99.90;;;;;;6215975;23;19997;-80
2021/06/19 08:30:05;;;;;;;10.85;6.38;;;25.50;99.90;;;;;;6215478;23;20020;-80
2021/06/19 08:32:31;;;;;;;13.48;7.68;;;24.60;99.90;;;;;;6215932;23;20051;-80
2021/06/19 08:34:57;;;;;;;12.15;7.07;;;24.20;99.90;;;;;;6215767;23;19997;-80
2021/06/19 08:37:23;;;;;;;11.00;7.03;;;24.00;99.90;;;;;;6215617;23;20008;-80
2021/06/19 08:39:48;;;;;;;13.95;6.70;;;23.90;99.90;;;;;;6215430;23;20447;-80
2021/06/19 08:42:14;;;;;;;10.27;7.13;;;24.00;99.90;;;;;;6215572;23;20000;-80
2021/06/19 08:44:44;;;;;;;12.00;7.35;;;24.10;99.90;;;;;;6215714;23;20001;-80
2021/06/19 08:47:11;;;;;;;12.43;7.50;;;24.10;99.90;;;;;;6215653;23;20016;-80
2021/06/19 08:49:37;;;;;;;9.13;6.40;;;24.10;99.90;;;;;;6215738;23;20046;-80
2021/06/19 08:52:03;;;;;;;9.80;6.97;;;24.20;99.90;;;;;;6215416;23;19997;-80
2021/06/19 08:54:38;;;;;;;12.82;6.53;;;24.20;99.90;;;;;;6215258;23;20450;-80
2021/06/19 08:57:13;;;;;;;10.70;6.72;;;24.30;99.90;;;;;;6215638;23;20374;-80
2021/06/19 08:59:47;;;;;;;12.88;6.45;;;24.90;99.90;;;;;;6215597;23;19993;-80
2021/06/19 09:02:13;;;;;;;10.38;7.07;;;25.60;99.90;;;;;;6215392;23;19999;-80
2021/06/19 09:04:59;;;;;;;11.80;6.10;;;26.00;99.90;;;;;;6215751;23;19997;-80
2021/06/19 09:07:45;;;;;;;9.20;6.22;;;26.50;99.90;;;;;;6188805;23;19997;-80
2021/06/19 09:10:18;;;;;;;13.20;7.07;;;26.20;99.90;;;;;;6188676;23;19996;-78
2021/06/19 09:13:01;;;;;;;30.73;8.27;;;26.10;99.90;;;;;;6215306;23;20341;-78
2021/06/19 09:15:28;;;;;;;13.70;7.47;;;26.00;99.90;;;;;;6215433;23;19993;-77
2021/06/19 09:18:13;;;;;;;12.57;7.25;;;26.30;99.90;;;;;;6188177;23;20001;-77
2021/06/19 09:21:06;;;;;;;9.93;6.40;;;25.60;99.90;;;;;;6215181;23;20019;-77
2021/06/19 09:23:40;;;;;;;12.73;7.50;;;25.20;99.90;;;;;;6210333;23;20441;-77
2021/06/19 09:26:14;;;;;;;8.57;7.72;;;25.30;99.90;;;;;;6214970;23;20024;-77
2021/06/19 09:29:00;;;;;;;14.43;8.57;;;25.50;99.90;;;;;;6208863;23;20486;-77
2021/06/19 09:31:30;;;;;;;14.20;8.15;;;26.00;99.90;;;;;;6213700;23;20028;-76
2021/06/19 09:34:06;;;;;;;11.05;8.77;;;26.10;99.90;;;;;;6213940;23;19997;-78
2021/06/19 09:36:50;;;;;;;14.00;7.85;;;26.10;99.90;;;;;;6213180;23;20054;-76
2021/06/19 09:39:19;;;;;;;10.75;8.20;;;26.30;99.90;;;;;;6213635;23;20025;-76
2021/06/19 09:41:54;;;;;;;14.50;7.70;;;26.60;99.90;;;;;;6213799;23;20071;-77
2021/06/19 09:44:42;;;;;;;12.20;7.10;;;26.90;99.90;;;;;;6212679;23;20484;-76
2021/06/19 09:47:10;;;;;;;10.63;7.72;;;26.90;99.90;;;;;;6199310;23;20079;-77
2021/06/19 09:49:41;;;;;;;12.75;7.70;;;26.50;99.90;;;;;;6213426;23;20004;-77
2021/06/19 09:52:08;;;;;;;10.60;7.07;;;26.80;99.90;;;;;;6213124;23;19996;-78
2021/06/19 09:54:40;;;;;;;11.73;7.05;;;26.80;99.90;;;;;;6186079;23;20467;-77
2021/06/19 09:57:08;;;;;;;12.98;8.02;;;27.10;99.90;;;;;;6213737;23;19997;-76
2021/06/19 09:59:36;;;;;;;13.43;7.80;;;27.90;99.90;;;;;;6213440;23;20020;-77
2021/06/19 10:02:04;;;;;;;10.05;7.72;;;28.10;99.90;;;;;;6213689;23;20043;-77
2021/06/19 10:04:31;;;;;;;15.05;7.88;;;27.40;99.90;;;;;;6214240;23;20008;-77
2021/06/19 10:06:58;;;;;;;11.85;7.45;;;27.50;99.90;;;;;;6214547;23;20338;-78
2021/06/19 10:09:24;;;;;;;13.75;8.20;;;27.80;99.90;;;;;;6188335;23;20000;-78
2021/06/19 10:11:52;;;;;;;13.77;7.45;;;28.40;99.90;;;;;;6215474;23;20331;-78
2021/06/19 10:14:21;;;;;;;9.98;7.30;;;28.30;99.90;;;;;;6214279;23;20000;-78
2021/06/19 10:16:52;;;;;;;14.20;7.50;;;28.40;99.90;;;;;;6214985;23;20768;-78
2021/06/19 10:19:22;;;;;;;13.43;8.10;;;28.80;99.90;;;;;;6214300;23;20446;-77
2021/06/19 10:21:52;;;;;;;17.58;7.47;;;28.80;99.90;;;;;;6213952;23;20055;-77
2021/06/19 10:24:21;;;;;;;13.05;7.13;;;28.80;99.90;;;;;;6214516;23;20001;-77
2021/06/19 10:26:48;;;;;;;16.95;7.10;;;29.90;99.90;;;;;;6214791;23;20005;-77
2021/06/19 10:29:15;;;;;;;10.20;6.85;;;32.40;99.90;;;;;;6214742;23;19997;-77
2021/06/19 10:31:44;;;;;;;11.15;6.53;;;34.00;99.90;;;;;;6214411;23;20000;-77
2021/06/19 10:34:25;;;;;;;12.30;6.95;;;34.60;99.90;;;;;;6214417;23;20008;-77
2021/06/19 10:36:53;;;;;;;11.38;6.45;;;34.80;99.90;;;;;;6214314;23;20020;-77
2021/06/19 10:39:36;;;;;;;12.40;6.15;;;34.50;99.90;;;;;;6214770;23;20026;-78
2021/06/19 10:42:03;;;;;;;14.23;5.90;;;35.30;99.90;;;;;;6214812;23;20378;-75
2021/06/19 10:45:01;;;;;;;12.13;5.55;;;34.40;99.90;;;;;;6214032;23;20055;-75
2021/06/19 10:47:47;;;;;;;16.98;6.07;;;35.50;99.90;;;;;;6187419;23;20477;-75
2021/06/19 10:50:22;;;;;;;13.48;5.45;;;34.80;99.90;;;;;;6214039;23;19993;-74
2021/06/19 10:53:13;;;;;;;12.48;6.00;;;32.30;99.90;;;;;;6214301;23;20011;-79
2021/06/19 10:55:44;;;;;;;11.48;5.72;;;33.50;99.90;;;;;;6214531;23;19999;-78
2021/06/19 10:58:24;;;;;;;16.58;5.78;;;34.80;99.90;;;;;;6214685;23;20051;-78
2021/06/19 11:01:00;;;;;;;13.75;5.47;;;34.60;99.90;;;;;;6214471;23;19992;-78
2021/06/19 11:03:50;;;;;;;13.30;5.85;;;34.00;99.90;;;;;;6187563;23;20001;-78
2021/06/19 11:06:20;;;;;;;17.52;5.95;;;36.40;99.90;;;;;;6214724;23;20076;-78
2021/06/19 11:09:08;;;;;;;8.55;4.80;;;36.80;99.90;;;;;;6214373;23;20390;-78
2021/06/19 11:12:01;;;;;;;8.45;5.22;;;35.40;99.90;;;;;;6214538;23;20004;-80
2021/06/19 11:14:42;;;;;;;13.35;5.93;;;34.80;99.90;;;;;;6214612;23;19996;-80
2021/06/19 11:17:08;;;;;;;12.00;5.75;;;33.50;99.90;;;;;;6214604;23;20003;-80
2021/06/19 11:19:48;;;;;;;11.82;5.40;;;35.90;99.90;;;;;;6214149;23;20509;-80
2021/06/19 11:22:27;;;;;;;13.52;5.20;;;37.30;99.90;;;;;;6214693;23;20003;-79
2021/06/19 11:25:40;;;;;;;10.40;5.13;;;35.90;99.90;;;;;;6187775;23;20047;-79
2021/06/19 11:28:08;;;;;;;15.30;5.93;;;35.40;99.90;;;;;;6214581;23;20016;-79
2021/06/19 11:30:33;;;;;;;14.60;6.22;;;35.60;99.90;;;;;;6214330;23;19992;-79
2021/06/19 11:33:19;;;;;;;9.82;6.63;;;36.60;99.90;;;;;;6187372;23;20005;-79
2021/06/19 11:35:48;;;;;;;12.68;5.65;;;37.50;99.90;;;;;;6214158;23;20064;-79
2021/06/19 11:38:16;;;;;;;20.57;6.50;;;35.70;99.90;;;;;;6214572;23;20338;-79
2021/06/19 11:40:43;;;;;;;11.88;6.70;;;33.80;99.90;;;;;;6214375;23;20566;-79
2021/06/19 11:43:11;;;;;;;14.38;6.03;;;32.60;99.90;;;;;;6214634;23;20466;-79
2021/06/19 11:45:39;;;;;;;12.60;5.07;;;32.20;99.90;;;;;;6214430;23;19997;-79
2021/06/19 11:48:10;;;;;;;14.50;5.93;;;31.70;99.90;;;;;;6215550;23;20438;-79
2021/06/19 11:50:37;;;;;;;14.65;6.07;;;30.80;99.90;;;;;;6216254;23;20023;-79
2021/06/19 11:53:32;;;;;;;15.07;5.57;;;30.40;99.90;;;;;;6216611;23;20007;-79
2021/06/19 11:56:22;;;;;;;14.88;5.53;;;29.20;99.90;;;;;;6213883;23;20489;-78
2021/06/19 11:58:57;;;;;;;16.77;6.68;;;28.80;99.90;;;;;;6216452;23;20084;-77
2021/06/19 12:01:34;;;;;;;13.05;5.65;;;28.60;99.90;;;;;;6216159;23;20001;-79
2021/06/19 12:04:04;;;;;;;18.88;7.00;;;28.20;99.90;;;;;;6216402;23;20004;-78
2021/06/19 12:06:31;;;;;;;9.40;6.05;;;27.90;99.90;;;;;;6216409;23;20001;-77
2021/06/19 12:08:57;;;;;;;20.05;7.85;;;27.50;99.90;;;;;;6216260;23;20001;-78
2021/06/19 12:11:30;;;;;;;19.48;7.95;;;27.90;99.90;;;;;;6216183;23;19997;-77
2021/06/19 12:13:57;;;;;;;14.05;7.22;;;28.60;99.90;;;;;;6215986;23;19997;-77
2021/06/19 12:16:30;;;;;;;14.07;7.15;;;29.10;99.90;;;;;;6216207;23;20019;-77
2021/06/19 12:19:02;;;;;;;18.55;6.85;;;29.00;99.90;;;;;;6216234;23;20003;-77
2021/06/19 12:21:39;;;;;;;13.07;6.40;;;29.20;99.90;;;;;;6216133;23;20414;-77
2021/06/19 12:24:24;;;;;;;14.05;6.55;;;28.80;99.90;;;;;;6216280;23;19996;-78
2021/06/19 12:27:07;;;;;;;17.48;7.65;;;28.30;99.90;;;;;;6215966;23;19997;-77
2021/06/19 12:29:34;;;;;;;16.25;6.15;;;27.90;99.90;;;;;;6216249;23;20024;-77
2021/06/19 12:32:01;;;;;;;16.95;6.88;;;27.80;99.90;;;;;;6215576;23;20069;-77
2021/06/19 12:34:28;;;;;;;11.15;6.65;;;28.00;99.90;;;;;;6216127;23;20018;-77
2021/06/19 12:36:56;;;;;;;18.08;6.38;;;28.10;99.90;;;;;;6215531;23;20009;-79
2021/06/19 12:39:23;;;;;;;13.43;7.57;;;28.20;99.90;;;;;;6215968;23;20443;-79
2021/06/19 12:41:49;;;;;;;16.67;6.78;;;29.50;99.90;;;;;;6216015;23;19996;-80
2021/06/19 12:44:14;;;;;;;15.05;6.75;;;32.30;99.90;;;;;;6215897;23;20401;-79